Аэропорт: Кызылорда. Кызылорда

ICAO: UAOO

METAR:
2020-08-09 22:00:00
UAOO 092200Z 18005MPS CAVOK 22/10 Q1000 NOSIG RMK QFE738/0984
METAR:
2020-08-09 20:00:00
TAF UAOO 092000Z 0921/1006 VRB01MPS CAVOK